sensor_id;sensor_type;location;lat;lon;timestamp;pressure;altitude;pressure_sealevel;temperature;humidity
21449;BME280;10885;52.830;13.788;2023-02-10T06:09:44;102779.47;;;0.09;81.26
21449;BME280;10885;52.830;13.788;2023-02-10T06:15:07;102794.41;;;0.07;81.13
21449;BME280;10885;52.830;13.788;2023-02-10T06:20:28;102797.41;;;0.05;80.83
21449;BME280;10885;52.830;13.788;2023-02-10T06:25:49;102800.16;;;0.06;81.55
21449;BME280;10885;52.830;13.788;2023-02-10T06:31:14;102807.22;;;0.09;81.42
21449;BME280;10885;52.830;13.788;2023-02-10T06:36:35;102819.75;;;0.14;81.12
21449;BME280;10885;52.830;13.788;2023-02-10T06:41:56;102827.63;;;0.23;80.62
21449;BME280;10885;52.830;13.788;2023-02-10T06:47:18;102832.97;;;0.19;80.75
21449;BME280;10885;52.830;13.788;2023-02-10T06:52:39;102828.81;;;0.19;80.78
21449;BME280;10885;52.830;13.788;2023-02-10T06:58:00;102832.88;;;0.25;80.73
21449;BME280;10885;52.830;13.788;2023-02-10T07:03:22;102832.28;;;0.33;80.34
21449;BME280;10885;52.830;13.788;2023-02-10T07:08:42;102835.13;;;0.29;81.01
21449;BME280;10885;52.830;13.788;2023-02-10T07:14:03;102844.69;;;0.31;80.98
21449;BME280;10885;52.830;13.788;2023-02-10T07:19:24;102836.66;;;0.34;80.72
21449;BME280;10885;52.830;13.788;2023-02-10T07:24:45;102848.69;;;0.42;80.73
21449;BME280;10885;52.830;13.788;2023-02-10T07:30:06;102852.22;;;0.50;81.35
21449;BME280;10885;52.830;13.788;2023-02-10T07:35:27;102862.25;;;0.68;80.98
21449;BME280;10885;52.830;13.788;2023-02-10T07:40:49;102869.13;;;0.82;80.32
21449;BME280;10885;52.830;13.788;2023-02-10T07:46:09;102865.28;;;0.91;79.45
21449;BME280;10885;52.830;13.788;2023-02-10T07:51:30;102860.94;;;1.03;79.78
21449;BME280;10885;52.830;13.788;2023-02-10T07:56:51;102878.19;;;1.38;78.93
21449;BME280;10885;52.830;13.788;2023-02-10T08:02:12;102873.56;;;1.74;77.51
21449;BME280;10885;52.830;13.788;2023-02-10T08:07:34;102876.66;;;2.12;76.13
21449;BME280;10885;52.830;13.788;2023-02-10T08:12:54;102873.22;;;2.51;74.83
21449;BME280;10885;52.830;13.788;2023-02-10T08:18:16;102862.25;;;2.85;73.13
21449;BME280;10885;52.830;13.788;2023-02-10T08:23:37;102873.13;;;3.18;72.25
21449;BME280;10885;52.830;13.788;2023-02-10T08:28:58;102871.50;;;3.61;69.87
21449;BME280;10885;52.830;13.788;2023-02-10T08:34:20;102862.16;;;3.88;68.49
21449;BME280;10885;52.830;13.788;2023-02-10T08:39:42;102862.75;;;4.00;68.91
21449;BME280;10885;52.830;13.788;2023-02-10T08:45:03;102856.75;;;4.21;67.89
21449;BME280;10885;52.830;13.788;2023-02-10T08:50:25;102866.75;;;4.48;67.46
21449;BME280;10885;52.830;13.788;2023-02-10T08:56:04;102871.13;;;4.64;66.91
21449;BME280;10885;52.830;13.788;2023-02-10T09:01:25;102874.53;;;4.86;66.07
21449;BME280;10885;52.830;13.788;2023-02-10T09:06:49;102881.28;;;4.64;66.58
21449;BME280;10885;52.830;13.788;2023-02-10T09:12:11;102881.78;;;4.39;67.27
21449;BME280;10885;52.830;13.788;2023-02-10T09:17:32;102889.94;;;4.15;68.97
21449;BME280;10885;52.830;13.788;2023-02-10T09:22:53;102903.56;;;4.16;69.86
21449;BME280;10885;52.830;13.788;2023-02-10T09:28:14;102903.19;;;4.27;70.35
21449;BME280;10885;52.830;13.788;2023-02-10T09:33:34;102911.56;;;4.41;69.42
21449;BME280;10885;52.830;13.788;2023-02-10T09:38:56;102912.47;;;4.63;68.21
21449;BME280;10885;52.830;13.788;2023-02-10T09:44:23;102906.47;;;4.69;68.17
21449;BME280;10885;52.830;13.788;2023-02-10T09:50:03;102920.63;;;4.53;68.82
21449;BME280;10885;52.830;13.788;2023-02-10T09:55:33;102929.31;;;4.26;69.21
21449;BME280;10885;52.830;13.788;2023-02-10T10:06:54;102933.50;;;4.47;69.43
21449;BME280;10885;52.830;13.788;2023-02-10T10:12:18;102923.56;;;4.77;68.82
21449;BME280;10885;52.830;13.788;2023-02-10T10:18:14;102924.22;;;5.20;68.01
21449;BME280;10885;52.830;13.788;2023-02-10T10:29:30;102939.91;;;5.53;66.33
21449;BME280;10885;52.830;13.788;2023-02-10T10:34:55;102930.38;;;5.14;67.27
21449;BME280;10885;52.830;13.788;2023-02-10T10:40:37;102926.91;;;5.35;66.41
21449;BME280;10885;52.830;13.788;2023-02-10T10:46:09;102940.06;;;4.95;68.54
21449;BME280;10885;52.830;13.788;2023-02-10T10:51:31;102934.78;;;4.94;68.84
21449;BME280;10885;52.830;13.788;2023-02-10T10:56:58;102915.88;;;5.13;68.85
21449;BME280;10885;52.830;13.788;2023-02-10T11:02:22;102921.81;;;5.28;67.81
21449;BME280;10885;52.830;13.788;2023-02-10T11:07:48;102912.72;;;5.37;68.57
21449;BME280;10885;52.830;13.788;2023-02-10T11:13:19;102905.41;;;5.48;67.11
21449;BME280;10885;52.830;13.788;2023-02-10T11:18:52;102898.16;;;6.18;65.80
21449;BME280;10885;52.830;13.788;2023-02-10T11:29:46;102907.19;;;6.93;63.29
21449;BME280;10885;52.830;13.788;2023-02-10T11:35:15;102885.81;;;7.47;60.99
21449;BME280;10885;52.830;13.788;2023-02-10T11:41:07;102894.22;;;7.46;60.66
21449;BME280;10885;52.830;13.788;2023-02-10T11:46:32;102899.50;;;7.88;59.56
21449;BME280;10885;52.830;13.788;2023-02-10T11:51:55;102892.38;;;7.77;58.80
21449;BME280;10885;52.830;13.788;2023-02-10T11:57:29;102893.59;;;7.40;60.35
21449;BME280;10885;52.830;13.788;2023-02-10T12:09:16;102876.59;;;7.56;59.91
21449;BME280;10885;52.830;13.788;2023-02-10T12:20:53;102879.84;;;8.12;58.43
21449;BME280;10885;52.830;13.788;2023-02-10T12:26:26;102882.13;;;8.84;56.02
21449;BME280;10885;52.830;13.788;2023-02-10T12:38:18;102872.72;;;8.59;56.45
21449;BME280;10885;52.830;13.788;2023-02-10T12:55:25;102850.28;;;9.15;55.39
21449;BME280;10885;52.830;13.788;2023-02-10T13:00:51;102846.22;;;9.18;55.80
21449;BME280;10885;52.830;13.788;2023-02-10T13:06:43;102837.03;;;9.46;55.25
21449;BME280;10885;52.830;13.788;2023-02-10T13:17:43;102826.31;;;9.76;53.63
21449;BME280;10885;52.830;13.788;2023-02-10T13:34:21;102833.72;;;9.12;55.91
21449;BME280;10885;52.830;13.788;2023-02-10T13:40:04;102826.72;;;8.67;56.49
21449;BME280;10885;52.830;13.788;2023-02-10T13:45:36;102829.38;;;7.93;58.57
21449;BME280;10885;52.830;13.788;2023-02-10T13:51:00;102831.81;;;7.51;59.83
21449;BME280;10885;52.830;13.788;2023-02-10T14:01:46;102814.22;;;6.66;62.99
21449;BME280;10885;52.830;13.788;2023-02-10T14:07:37;102821.16;;;6.44;63.93
21449;BME280;10885;52.830;13.788;2023-02-10T14:13:21;102826.31;;;6.21;65.26
21449;BME280;10885;52.830;13.788;2023-02-10T14:18:44;102814.06;;;6.03;65.81
21449;BME280;10885;52.830;13.788;2023-02-10T14:24:18;102817.63;;;5.82;66.60
21449;BME280;10885;52.830;13.788;2023-02-10T14:29:51;102818.63;;;5.68;67.98
21449;BME280;10885;52.830;13.788;2023-02-10T14:35:22;102823.81;;;5.53;68.58
21449;BME280;10885;52.830;13.788;2023-02-10T14:40:49;102823.25;;;5.49;68.22
21449;BME280;10885;52.830;13.788;2023-02-10T14:46:22;102825.41;;;5.60;68.49
21449;BME280;10885;52.830;13.788;2023-02-10T14:51:44;102817.25;;;5.55;69.15
21449;BME280;10885;52.830;13.788;2023-02-10T14:57:11;102807.06;;;5.55;68.58
21449;BME280;10885;52.830;13.788;2023-02-10T15:02:34;102804.25;;;5.68;69.32
21449;BME280;10885;52.830;13.788;2023-02-10T15:07:57;102801.69;;;6.06;70.94
21449;BME280;10885;52.830;13.788;2023-02-10T15:13:24;102799.16;;;6.45;68.08
21449;BME280;10885;52.830;13.788;2023-02-10T15:18:48;102801.78;;;6.37;66.19
21449;BME280;10885;52.830;13.788;2023-02-10T15:24:29;102791.28;;;6.11;66.72
21449;BME280;10885;52.830;13.788;2023-02-10T15:29:51;102802.06;;;6.02;67.46
21449;BME280;10885;52.830;13.788;2023-02-10T15:35:14;102797.66;;;5.77;67.73
21449;BME280;10885;52.830;13.788;2023-02-10T15:40:34;102807.59;;;5.60;68.62
21449;BME280;10885;52.830;13.788;2023-02-10T15:46:18;102805.34;;;5.33;69.38
21449;BME280;10885;52.830;13.788;2023-02-10T15:51:43;102812.16;;;5.11;69.63
21449;BME280;10885;52.830;13.788;2023-02-10T15:57:06;102804.97;;;5.00;70.75
21449;BME280;10885;52.830;13.788;2023-02-10T16:02:26;102793.53;;;4.89;70.85
21449;BME280;10885;52.830;13.788;2023-02-10T16:07:48;102786.50;;;4.79;71.25
21449;BME280;10885;52.830;13.788;2023-02-10T16:13:13;102784.88;;;4.72;71.84
21449;BME280;10885;52.830;13.788;2023-02-10T16:18:35;102779.09;;;4.59;71.96
21449;BME280;10885;52.830;13.788;2023-02-10T16:23:57;102773.69;;;4.49;72.11
21449;BME280;10885;52.830;13.788;2023-02-10T16:29:21;102769.38;;;4.26;72.77
21449;BME280;10885;52.830;13.788;2023-02-10T16:34:43;102777.19;;;4.06;73.63
21449;BME280;10885;52.830;13.788;2023-02-10T16:40:04;102777.00;;;3.90;74.71
21449;BME280;10885;52.830;13.788;2023-02-10T16:45:28;102787.31;;;3.85;75.07
21449;BME280;10885;52.830;13.788;2023-02-10T16:50:49;102794.91;;;3.77;74.92
21449;BME280;10885;52.830;13.788;2023-02-10T16:56:15;102800.34;;;3.66;75.74
21449;BME280;10885;52.830;13.788;2023-02-10T17:01:36;102818.59;;;3.64;75.50
21449;BME280;10885;52.830;13.788;2023-02-10T17:06:57;102812.78;;;3.50;76.19
21449;BME280;10885;52.830;13.788;2023-02-10T17:12:18;102797.75;;;3.52;76.78
21449;BME280;10885;52.830;13.788;2023-02-10T17:17:39;102787.09;;;3.54;76.76
21449;BME280;10885;52.830;13.788;2023-02-10T17:23:00;102783.84;;;3.63;76.38
21449;BME280;10885;52.830;13.788;2023-02-10T17:28:24;102792.53;;;3.65;76.26
21449;BME280;10885;52.830;13.788;2023-02-10T17:33:45;102783.66;;;3.61;77.03
21449;BME280;10885;52.830;13.788;2023-02-10T17:39:15;102788.75;;;3.68;76.50
21449;BME280;10885;52.830;13.788;2023-02-10T17:44:45;102784.75;;;3.77;77.09
21449;BME280;10885;52.830;13.788;2023-02-10T17:50:06;102793.28;;;3.85;76.18
21449;BME280;10885;52.830;13.788;2023-02-10T17:55:27;102796.91;;;3.87;75.58
21449;BME280;10885;52.830;13.788;2023-02-10T18:00:48;102782.78;;;3.82;75.22
21449;BME280;10885;52.830;13.788;2023-02-10T18:06:10;102744.00;;;3.69;75.88
21449;BME280;10885;52.830;13.788;2023-02-10T18:11:36;102731.66;;;3.57;76.55
21449;BME280;10885;52.830;13.788;2023-02-10T18:16:58;102722.75;;;3.54;77.33
21449;BME280;10885;52.830;13.788;2023-02-10T18:22:19;102718.03;;;3.50;77.29
21449;BME280;10885;52.830;13.788;2023-02-10T18:27:40;102724.41;;;3.46;77.17
21449;BME280;10885;52.830;13.788;2023-02-10T18:33:01;102722.19;;;3.42;77.50
21449;BME280;10885;52.830;13.788;2023-02-10T18:38:23;102725.09;;;3.38;77.69
21449;BME280;10885;52.830;13.788;2023-02-10T18:43:44;102727.81;;;3.32;77.97
21449;BME280;10885;52.830;13.788;2023-02-10T18:49:07;102728.16;;;3.28;78.42
21449;BME280;10885;52.830;13.788;2023-02-10T18:54:28;102728.16;;;3.28;78.09
21449;BME280;10885;52.830;13.788;2023-02-10T18:59:49;102734.28;;;3.23;78.44
21449;BME280;10885;52.830;13.788;2023-02-10T19:05:10;102745.13;;;3.22;78.98
21449;BME280;10885;52.830;13.788;2023-02-10T19:10:31;102744.63;;;3.25;78.58
21449;BME280;10885;52.830;13.788;2023-02-10T19:15:54;102739.41;;;3.37;77.62
21449;BME280;10885;52.830;13.788;2023-02-10T19:21:16;102731.44;;;3.34;77.00
21449;BME280;10885;52.830;13.788;2023-02-10T19:26:37;102697.75;;;3.35;77.21
21449;BME280;10885;52.830;13.788;2023-02-10T19:31:58;102708.06;;;3.37;76.29
21449;BME280;10885;52.830;13.788;2023-02-10T19:37:21;102704.81;;;3.38;75.66
21449;BME280;10885;52.830;13.788;2023-02-10T19:42:42;102701.56;;;3.39;76.11
21449;BME280;10885;52.830;13.788;2023-02-10T19:48:03;102695.25;;;3.43;75.01
21449;BME280;10885;52.830;13.788;2023-02-10T19:53:25;102691.44;;;3.46;75.05
21449;BME280;10885;52.830;13.788;2023-02-10T19:58:45;102682.38;;;3.48;74.26
21449;BME280;10885;52.830;13.788;2023-02-10T20:04:06;102674.78;;;3.48;73.29
21449;BME280;10885;52.830;13.788;2023-02-10T20:09:28;102662.09;;;3.48;73.59
21449;BME280;10885;52.830;13.788;2023-02-10T20:14:51;102650.50;;;3.50;73.29
21449;BME280;10885;52.830;13.788;2023-02-10T20:20:12;102651.03;;;3.48;72.35
21449;BME280;10885;52.830;13.788;2023-02-10T20:25:33;102656.28;;;3.49;72.18
21449;BME280;10885;52.830;13.788;2023-02-10T20:30:55;102648.13;;;3.52;72.13
21449;BME280;10885;52.830;13.788;2023-02-10T20:36:18;102652.84;;;3.56;71.60
21449;BME280;10885;52.830;13.788;2023-02-10T20:41:40;102655.94;;;3.53;70.87
21449;BME280;10885;52.830;13.788;2023-02-10T20:47:01;102650.47;;;3.36;71.32
21449;BME280;10885;52.830;13.788;2023-02-10T20:52:24;102642.16;;;3.23;71.21
21449;BME280;10885;52.830;13.788;2023-02-10T20:57:45;102650.78;;;3.10;72.07
21449;BME280;10885;52.830;13.788;2023-02-10T21:03:06;102654.78;;;3.08;72.47
21449;BME280;10885;52.830;13.788;2023-02-10T21:08:27;102648.28;;;3.03;72.33
21449;BME280;10885;52.830;13.788;2023-02-10T21:13:48;102636.50;;;3.04;72.17
21449;BME280;10885;52.830;13.788;2023-02-10T21:19:09;102618.94;;;2.98;72.29
21449;BME280;10885;52.830;13.788;2023-02-10T21:24:30;102597.38;;;2.94;72.66
21449;BME280;10885;52.830;13.788;2023-02-10T21:29:52;102589.25;;;2.90;72.57
21449;BME280;10885;52.830;13.788;2023-02-10T21:35:13;102580.91;;;2.84;72.82
21449;BME280;10885;52.830;13.788;2023-02-10T21:40:34;102569.13;;;2.84;73.11
21449;BME280;10885;52.830;13.788;2023-02-10T21:45:54;102559.38;;;2.80;72.61
21449;BME280;10885;52.830;13.788;2023-02-10T21:51:15;102560.81;;;2.78;72.51
21449;BME280;10885;52.830;13.788;2023-02-10T21:56:37;102566.78;;;2.78;72.48
21449;BME280;10885;52.830;13.788;2023-02-10T22:01:58;102557.94;;;2.82;72.17
21449;BME280;10885;52.830;13.788;2023-02-10T22:07:24;102558.66;;;2.88;71.63
21449;BME280;10885;52.830;13.788;2023-02-10T22:12:45;102537.31;;;2.86;71.38
21449;BME280;10885;52.830;13.788;2023-02-10T22:18:06;102505.47;;;2.88;71.11
21449;BME280;10885;52.830;13.788;2023-02-10T22:23:27;102496.63;;;2.85;71.25
21449;BME280;10885;52.830;13.788;2023-02-10T22:28:48;102493.31;;;2.78;71.31
21449;BME280;10885;52.830;13.788;2023-02-10T22:34:09;102483.19;;;2.78;70.74
21449;BME280;10885;52.830;13.788;2023-02-10T22:39:30;102475.59;;;2.78;71.11
21449;BME280;10885;52.830;13.788;2023-02-10T22:44:51;102479.59;;;2.76;70.73
21449;BME280;10885;52.830;13.788;2023-02-10T22:50:12;102480.31;;;2.75;70.62
